sensor_id;sensor_type;location;lat;lon;timestamp;pressure;altitude;pressure_sealevel;temperature;humidity
61618;BME280;47518;51.776;9.370;2023-01-08T00:02:01;99343.59;;;8.52;78.43
61618;BME280;47518;51.776;9.370;2023-01-08T00:04:27;99332.03;;;8.58;77.34
61618;BME280;47518;51.776;9.370;2023-01-08T00:06:52;99328.13;;;8.46;78.43
61618;BME280;47518;51.776;9.370;2023-01-08T00:09:17;99326.78;;;8.42;78.99
61618;BME280;47518;51.776;9.370;2023-01-08T00:11:43;99335.69;;;8.36;79.20
61618;BME280;47518;51.776;9.370;2023-01-08T00:14:09;99341.09;;;8.51;78.14
61618;BME280;47518;51.776;9.370;2023-01-08T00:16:35;99333.53;;;8.46;79.06
61618;BME280;47518;51.776;9.370;2023-01-08T00:19:00;99337.63;;;8.42;78.82
61618;BME280;47518;51.776;9.370;2023-01-08T00:21:25;99332.03;;;8.58;77.94
61618;BME280;47518;51.776;9.370;2023-01-08T00:23:50;99331.53;;;8.55;78.55
61618;BME280;47518;51.776;9.370;2023-01-08T00:26:16;99330.25;;;8.51;78.76
61618;BME280;47518;51.776;9.370;2023-01-08T00:28:41;99329.41;;;8.50;79.55
61618;BME280;47518;51.776;9.370;2023-01-08T00:31:09;99335.59;;;8.59;78.64
61618;BME280;47518;51.776;9.370;2023-01-08T00:33:35;99341.16;;;8.87;76.88
61618;BME280;47518;51.776;9.370;2023-01-08T00:36:07;99333.88;;;8.72;77.87
61618;BME280;47518;51.776;9.370;2023-01-08T00:38:33;99319.59;;;8.64;77.49
61618;BME280;47518;51.776;9.370;2023-01-08T00:40:58;99324.81;;;8.65;78.28
61618;BME280;47518;51.776;9.370;2023-01-08T00:43:23;99331.00;;;8.59;79.08
61618;BME280;47518;51.776;9.370;2023-01-08T00:45:49;99313.25;;;8.57;78.09
61618;BME280;47518;51.776;9.370;2023-01-08T00:48:18;99312.94;;;8.66;78.70
61618;BME280;47518;51.776;9.370;2023-01-08T00:50:43;99306.81;;;8.58;79.62
61618;BME280;47518;51.776;9.370;2023-01-08T00:53:08;99310.25;;;8.52;79.08
61618;BME280;47518;51.776;9.370;2023-01-08T00:55:34;99292.03;;;8.60;78.15
61618;BME280;47518;51.776;9.370;2023-01-08T00:57:59;99290.66;;;8.50;78.59
61618;BME280;47518;51.776;9.370;2023-01-08T01:00:24;99299.13;;;8.61;78.67
61618;BME280;47518;51.776;9.370;2023-01-08T01:02:50;99288.19;;;8.55;78.68
61618;BME280;47518;51.776;9.370;2023-01-08T01:05:15;99286.69;;;8.67;78.26
61618;BME280;47518;51.776;9.370;2023-01-08T01:07:42;99289.59;;;8.65;78.74
61618;BME280;47518;51.776;9.370;2023-01-08T01:10:09;99282.66;;;8.77;77.85
61618;BME280;47518;51.776;9.370;2023-01-08T01:12:36;99284.91;;;8.74;78.45
61618;BME280;47518;51.776;9.370;2023-01-08T01:15:04;99290.28;;;8.89;77.76
61618;BME280;47518;51.776;9.370;2023-01-08T01:17:29;99288.91;;;8.93;77.29
61618;BME280;47518;51.776;9.370;2023-01-08T01:19:55;99285.53;;;8.91;78.44
61618;BME280;47518;51.776;9.370;2023-01-08T01:22:20;99294.19;;;9.01;77.01
61618;BME280;47518;51.776;9.370;2023-01-08T01:24:45;99286.13;;;9.07;77.20
61618;BME280;47518;51.776;9.370;2023-01-08T01:27:11;99280.84;;;9.21;77.09
61618;BME280;47518;51.776;9.370;2023-01-08T01:29:36;99273.50;;;9.15;76.51
61618;BME280;47518;51.776;9.370;2023-01-08T01:32:01;99271.66;;;9.00;77.45
61618;BME280;47518;51.776;9.370;2023-01-08T01:34:26;99274.19;;;9.02;77.20
61618;BME280;47518;51.776;9.370;2023-01-08T01:36:52;99288.31;;;8.97;77.56
61618;BME280;47518;51.776;9.370;2023-01-08T01:39:17;99275.28;;;9.07;77.69
61618;BME280;47518;51.776;9.370;2023-01-08T01:41:45;99275.75;;;9.11;77.19
61618;BME280;47518;51.776;9.370;2023-01-08T01:44:32;99272.53;;;9.22;76.53
61618;BME280;47518;51.776;9.370;2023-01-08T01:46:58;99274.84;;;9.25;76.86
61618;BME280;47518;51.776;9.370;2023-01-08T01:49:24;99265.94;;;9.10;77.25
61618;BME280;47518;51.776;9.370;2023-01-08T01:51:53;99263.84;;;9.12;76.67
61618;BME280;47518;51.776;9.370;2023-01-08T01:54:20;99264.25;;;9.09;78.47
61618;BME280;47518;51.776;9.370;2023-01-08T01:56:47;99274.19;;;9.23;77.30
61618;BME280;47518;51.776;9.370;2023-01-08T01:59:12;99273.50;;;9.15;77.29
61618;BME280;47518;51.776;9.370;2023-01-08T02:01:40;99278.97;;;9.21;77.69
61618;BME280;47518;51.776;9.370;2023-01-08T02:04:09;99276.91;;;9.23;77.56
61618;BME280;47518;51.776;9.370;2023-01-08T02:06:41;99270.09;;;9.27;76.79
61618;BME280;47518;51.776;9.370;2023-01-08T02:09:24;99276.41;;;9.34;77.19
61618;BME280;47518;51.776;9.370;2023-01-08T02:12:31;99280.94;;;9.27;78.05
61618;BME280;47518;51.776;9.370;2023-01-08T02:15:25;99279.28;;;9.12;78.03
61618;BME280;47518;51.776;9.370;2023-01-08T02:18:12;99268.53;;;9.18;78.19
61618;BME280;47518;51.776;9.370;2023-01-08T02:20:45;99270.91;;;9.28;77.64
61618;BME280;47518;51.776;9.370;2023-01-08T02:49:40;99264.00;;;9.47;77.46
61618;BME280;47518;51.776;9.370;2023-01-08T02:52:09;99269.03;;;9.50;77.30
61618;BME280;47518;51.776;9.370;2023-01-08T02:54:38;99276.34;;;9.49;78.74
61618;BME280;47518;51.776;9.370;2023-01-08T02:57:09;99279.22;;;9.48;78.16
61618;BME280;47518;51.776;9.370;2023-01-08T02:59:36;99263.63;;;9.50;77.48
61618;BME280;47518;51.776;9.370;2023-01-08T03:02:04;99264.69;;;9.55;78.07
61618;BME280;47518;51.776;9.370;2023-01-08T03:04:34;99264.69;;;9.55;78.46
61618;BME280;47518;51.776;9.370;2023-01-08T03:07:01;99259.88;;;9.51;78.78
61618;BME280;47518;51.776;9.370;2023-01-08T03:09:26;99246.88;;;9.25;81.49
61618;BME280;47518;51.776;9.370;2023-01-08T03:11:56;99251.34;;;9.11;81.54
61618;BME280;47518;51.776;9.370;2023-01-08T03:14:31;99242.44;;;9.17;82.65
61618;BME280;47518;51.776;9.370;2023-01-08T03:17:06;99231.59;;;9.17;82.18
61618;BME280;47518;51.776;9.370;2023-01-08T03:19:39;99229.94;;;9.16;81.35
61618;BME280;47518;51.776;9.370;2023-01-08T03:22:14;99225.97;;;9.19;81.06
61618;BME280;47518;51.776;9.370;2023-01-08T03:24:42;99226.38;;;9.16;81.60
61618;BME280;47518;51.776;9.370;2023-01-08T03:27:14;99229.44;;;9.13;82.05
61618;BME280;47518;51.776;9.370;2023-01-08T03:29:40;99232.63;;;9.16;81.52
61618;BME280;47518;51.776;9.370;2023-01-08T03:32:14;99233.47;;;9.17;81.49
61618;BME280;47518;51.776;9.370;2023-01-08T03:34:42;99227.22;;;9.16;81.59
61618;BME280;47518;51.776;9.370;2023-01-08T03:37:10;99222.66;;;9.23;81.88
61618;BME280;47518;51.776;9.370;2023-01-08T03:39:57;99232.28;;;9.26;80.89
61618;BME280;47518;51.776;9.370;2023-01-08T03:42:24;99222.31;;;9.26;81.80
61618;BME280;47518;51.776;9.370;2023-01-08T03:44:50;99223.31;;;9.25;80.98
61618;BME280;47518;51.776;9.370;2023-01-08T03:47:17;99226.22;;;9.24;81.86
61618;BME280;47518;51.776;9.370;2023-01-08T03:49:44;99223.16;;;9.27;81.48
61618;BME280;47518;51.776;9.370;2023-01-08T03:52:21;99206.16;;;9.40;81.18
61618;BME280;47518;51.776;9.370;2023-01-08T03:54:47;99202.38;;;9.41;81.43
61618;BME280;47518;51.776;9.370;2023-01-08T03:57:13;99199.03;;;9.39;80.40
61618;BME280;47518;51.776;9.370;2023-01-08T03:59:38;99193.47;;;9.25;81.85
61618;BME280;47518;51.776;9.370;2023-01-08T04:02:03;99184.03;;;9.15;81.66
61618;BME280;47518;51.776;9.370;2023-01-08T04:04:28;99185.75;;;9.01;83.35
61618;BME280;47518;51.776;9.370;2023-01-08T04:06:54;99176.22;;;9.05;82.24
61618;BME280;47518;51.776;9.370;2023-01-08T04:09:19;99172.50;;;9.13;83.18
61618;BME280;47518;51.776;9.370;2023-01-08T04:11:44;99167.25;;;9.32;82.48
61618;BME280;47518;51.776;9.370;2023-01-08T04:14:10;99173.09;;;9.08;83.40
61618;BME280;47518;51.776;9.370;2023-01-08T04:16:36;99173.31;;;9.06;83.62
61618;BME280;47518;51.776;9.370;2023-01-08T04:19:01;99165.88;;;9.15;83.89
61618;BME280;47518;51.776;9.370;2023-01-08T04:21:27;99163.69;;;9.04;84.80
61618;BME280;47518;51.776;9.370;2023-01-08T04:23:53;99172.91;;;8.88;86.32
61618;BME280;47518;51.776;9.370;2023-01-08T04:26:18;99158.59;;;8.94;84.56
61618;BME280;47518;51.776;9.370;2023-01-08T04:28:44;99158.13;;;9.12;84.13
61618;BME280;47518;51.776;9.370;2023-01-08T04:31:09;99165.88;;;9.15;83.55
61618;BME280;47518;51.776;9.370;2023-01-08T04:33:35;99158.44;;;9.02;83.78
61618;BME280;47518;51.776;9.370;2023-01-08T04:36:01;99161.66;;;8.91;85.71
61618;BME280;47518;51.776;9.370;2023-01-08T04:38:26;99154.66;;;8.97;86.35
61618;BME280;47518;51.776;9.370;2023-01-08T04:40:57;99160.78;;;8.84;86.63
61618;BME280;47518;51.776;9.370;2023-01-08T04:43:23;99160.59;;;8.86;87.65
61618;BME280;47518;51.776;9.370;2023-01-08T04:45:48;99162.22;;;8.80;87.58
61618;BME280;47518;51.776;9.370;2023-01-08T04:48:13;99149.16;;;8.90;86.75
61618;BME280;47518;51.776;9.370;2023-01-08T04:50:38;99157.25;;;8.84;88.38
61618;BME280;47518;51.776;9.370;2023-01-08T04:53:04;99153.28;;;8.86;86.81
61618;BME280;47518;51.776;9.370;2023-01-08T04:55:29;99163.09;;;8.87;87.45
61618;BME280;47518;51.776;9.370;2023-01-08T04:57:54;99153.38;;;8.71;88.26
61618;BME280;47518;51.776;9.370;2023-01-08T05:00:20;99153.81;;;8.75;87.87
61618;BME280;47518;51.776;9.370;2023-01-08T05:02:45;99146.84;;;8.66;89.72
61618;BME280;47518;51.776;9.370;2023-01-08T05:05:10;99144.31;;;8.64;90.33
61618;BME280;47518;51.776;9.370;2023-01-08T05:07:35;99151.16;;;8.60;89.89
61618;BME280;47518;51.776;9.370;2023-01-08T05:10:01;99143.28;;;8.65;89.40
61618;BME280;47518;51.776;9.370;2023-01-08T05:12:26;99148.19;;;8.55;89.90
61618;BME280;47518;51.776;9.370;2023-01-08T05:29:28;99130.56;;;7.94;95.98
61618;BME280;47518;51.776;9.370;2023-01-08T05:31:54;99121.50;;;8.01;98.01
61618;BME280;47518;51.776;9.370;2023-01-08T05:34:19;99136.53;;;8.04;98.53
61618;BME280;47518;51.776;9.370;2023-01-08T05:36:44;99133.81;;;8.04;97.98
61618;BME280;47518;51.776;9.370;2023-01-08T05:39:10;99129.81;;;8.00;98.53
61618;BME280;47518;51.776;9.370;2023-01-08T05:41:36;99133.22;;;8.08;97.73
61618;BME280;47518;51.776;9.370;2023-01-08T05:44:01;99129.69;;;8.08;99.26
61618;BME280;47518;51.776;9.370;2023-01-08T05:46:26;99135.38;;;8.13;98.67
61618;BME280;47518;51.776;9.370;2023-01-08T05:48:52;99139.41;;;8.02;99.56
61618;BME280;47518;51.776;9.370;2023-01-08T05:51:17;99129.69;;;8.08;100.00
61618;BME280;47518;51.776;9.370;2023-01-08T05:53:42;99132.78;;;8.05;100.00
61618;BME280;47518;51.776;9.370;2023-01-08T05:56:09;99126.78;;;8.09;98.63
61618;BME280;47518;51.776;9.370;2023-01-08T05:58:36;99127.16;;;8.06;99.51
61618;BME280;47518;51.776;9.370;2023-01-08T06:01:04;99126.97;;;8.08;100.00
61618;BME280;47518;51.776;9.370;2023-01-08T06:03:29;99127.47;;;8.11;100.00
61618;BME280;47518;51.776;9.370;2023-01-08T06:06:00;99119.97;;;8.13;99.80
61618;BME280;47518;51.776;9.370;2023-01-08T06:08:26;99119.44;;;8.03;100.00
61618;BME280;47518;51.776;9.370;2023-01-08T06:10:52;99117.66;;;8.10;100.00
61618;BME280;47518;51.776;9.370;2023-01-08T06:13:17;99114.28;;;8.08;100.00
61618;BME280;47518;51.776;9.370;2023-01-08T06:15:42;99107.78;;;8.03;100.00
61618;BME280;47518;51.776;9.370;2023-01-08T06:18:08;99116.44;;;7.98;100.00
61618;BME280;47518;51.776;9.370;2023-01-08T06:20:33;99119.06;;;8.06;100.00
61618;BME280;47518;51.776;9.370;2023-01-08T06:22:58;99116.72;;;8.03;100.00
61618;BME280;47518;51.776;9.370;2023-01-08T06:25:23;99132.13;;;8.03;100.00
61618;BME280;47518;51.776;9.370;2023-01-08T06:27:50;99119.81;;;8.00;100.00
61618;BME280;47518;51.776;9.370;2023-01-08T06:30:16;99113.38;;;8.01;100.00
61618;BME280;47518;51.776;9.370;2023-01-08T06:32:41;99115.31;;;8.07;100.00
61618;BME280;47518;51.776;9.370;2023-01-08T06:35:06;99121.38;;;8.09;100.00
61618;BME280;47518;51.776;9.370;2023-01-08T06:37:32;99120.19;;;8.12;100.00
61618;BME280;47518;51.776;9.370;2023-01-08T06:39:57;99122.22;;;8.10;100.00
61618;BME280;47518;51.776;9.370;2023-01-08T06:42:22;99126.13;;;8.07;100.00
61618;BME280;47518;51.776;9.370;2023-01-08T06:44:48;99129.63;;;8.01;100.00
61618;BME280;47518;51.776;9.370;2023-01-08T06:47:13;99127.16;;;8.06;100.00
61618;BME280;47518;51.776;9.370;2023-01-08T06:49:38;99121.38;;;8.09;100.00
61618;BME280;47518;51.776;9.370;2023-01-08T06:52:04;99127.72;;;8.16;100.00
61618;BME280;47518;51.776;9.370;2023-01-08T06:54:29;99123.09;;;8.10;100.00
61618;BME280;47518;51.776;9.370;2023-01-08T06:56:54;99126.34;;;8.06;100.00
61618;BME280;47518;51.776;9.370;2023-01-08T06:59:20;99126.53;;;8.04;100.00
61618;BME280;47518;51.776;9.370;2023-01-08T07:01:45;99134.00;;;8.02;100.00
61618;BME280;47518;51.776;9.370;2023-01-08T07:04:10;99135.78;;;7.95;100.00
61618;BME280;47518;51.776;9.370;2023-01-08T07:06:36;99131.75;;;8.06;100.00
61618;BME280;47518;51.776;9.370;2023-01-08T07:09:01;99132.31;;;8.01;100.00
61618;BME280;47518;51.776;9.370;2023-01-08T07:11:26;99137.16;;;8.06;100.00
61618;BME280;47518;51.776;9.370;2023-01-08T07:13:52;99131.50;;;8.01;100.00
61618;BME280;47518;51.776;9.370;2023-01-08T07:16:17;99137.25;;;7.98;100.00
61618;BME280;47518;51.776;9.370;2023-01-08T07:18:42;99137.84;;;7.93;100.00
61618;BME280;47518;51.776;9.370;2023-01-08T07:21:08;99140.44;;;8.01;100.00
61618;BME280;47518;51.776;9.370;2023-01-08T07:23:34;99145.09;;;8.07;100.00
61618;BME280;47518;51.776;9.370;2023-01-08T07:26:01;99142.78;;;8.04;100.00
61618;BME280;47518;51.776;9.370;2023-01-08T07:28:27;99145.72;;;8.09;100.00
61618;BME280;47518;51.776;9.370;2023-01-08T07:30:52;99139.59;;;8.01;100.00
61618;BME280;47518;51.776;9.370;2023-01-08T07:33:18;99144.19;;;8.00;100.00
61618;BME280;47518;51.776;9.370;2023-01-08T07:35:43;99134.19;;;8.01;100.00
61618;BME280;47518;51.776;9.370;2023-01-08T07:38:08;99133.22;;;8.08;100.00
61618;BME280;47518;51.776;9.370;2023-01-08T07:40:34;99125.13;;;8.08;100.00
61618;BME280;47518;51.776;9.370;2023-01-08T07:43:00;99132.28;;;8.16;100.00
61618;BME280;47518;51.776;9.370;2023-01-08T07:45:27;99125.66;;;8.18;100.00
61618;BME280;47518;51.776;9.370;2023-01-08T07:47:53;99124.81;;;8.18;100.00
61618;BME280;47518;51.776;9.370;2023-01-08T07:50:18;99122.09;;;8.18;100.00
61618;BME280;47518;51.776;9.370;2023-01-08T07:52:43;99115.59;;;8.12;100.00
61618;BME280;47518;51.776;9.370;2023-01-08T07:55:09;99115.22;;;8.15;100.00
61618;BME280;47518;51.776;9.370;2023-01-08T07:57:34;99119.16;;;8.13;100.00
61618;BME280;47518;51.776;9.370;2023-01-08T07:59:59;99117.72;;;8.17;100.00
61618;BME280;47518;51.776;9.370;2023-01-08T08:02:24;99111.22;;;8.11;100.00
61618;BME280;47518;51.776;9.370;2023-01-08T08:04:50;99115.91;;;8.03;100.00
61618;BME280;47518;51.776;9.370;2023-01-08T08:07:15;99114.38;;;8.15;100.00
61618;BME280;47518;51.776;9.370;2023-01-08T08:09:40;99129.59;;;8.16;100.00
61618;BME280;47518;51.776;9.370;2023-01-08T08:12:06;99126.28;;;7.99;100.00
61618;BME280;47518;51.776;9.370;2023-01-08T08:14:31;99129.50;;;8.09;100.00
61618;BME280;47518;51.776;9.370;2023-01-08T08:16:56;99123.81;;;8.04;100.00
61618;BME280;47518;51.776;9.370;2023-01-08T08:19:21;99119.88;;;8.07;100.00
61618;BME280;47518;51.776;9.370;2023-01-08T08:21:47;99106.66;;;8.12;100.00
61618;BME280;47518;51.776;9.370;2023-01-08T08:24:12;99097.50;;;8.13;100.00
61618;BME280;47518;51.776;9.370;2023-01-08T08:26:37;99102.72;;;8.14;100.00
61618;BME280;47518;51.776;9.370;2023-01-08T08:29:02;99107.47;;;8.12;100.00
61618;BME280;47518;51.776;9.370;2023-01-08T08:31:28;99118.38;;;8.19;100.00
61618;BME280;47518;51.776;9.370;2023-01-08T08:33:53;99108.56;;;8.18;100.00
61618;BME280;47518;51.776;9.370;2023-01-08T08:36:18;99106.53;;;8.35;100.00
61618;BME280;47518;51.776;9.370;2023-01-08T08:38:44;99099.31;;;8.27;100.00
61618;BME280;47518;51.776;9.370;2023-01-08T08:41:09;99103.69;;;8.28;100.00
61618;BME280;47518;51.776;9.370;2023-01-08T08:43:34;99105.38;;;8.29;100.00
61618;BME280;47518;51.776;9.370;2023-01-08T08:46:00;99095.75;;;8.27;100.00
61618;BME280;47518;51.776;9.370;2023-01-08T08:48:25;99090.75;;;8.24;100.00
61618;BME280;47518;51.776;9.370;2023-01-08T08:50:51;99093.66;;;8.22;100.00
61618;BME280;47518;51.776;9.370;2023-01-08T08:53:16;99087.25;;;8.30;100.00
61618;BME280;47518;51.776;9.370;2023-01-08T08:55:41;99077.91;;;8.32;100.00
61618;BME280;47518;51.776;9.370;2023-01-08T08:58:10;99088.84;;;8.39;100.00
61618;BME280;47518;51.776;9.370;2023-01-08T09:00:38;99085.31;;;8.38;99.65
61618;BME280;47518;51.776;9.370;2023-01-08T09:03:03;99081.69;;;8.53;98.85
61618;BME280;47518;51.776;9.370;2023-01-08T09:05:29;99087.53;;;8.56;98.71
61618;BME280;47518;51.776;9.370;2023-01-08T09:07:55;99086.59;;;8.64;97.82
61618;BME280;47518;51.776;9.370;2023-01-08T09:10:21;99083.50;;;8.45;98.97
61618;BME280;47518;51.776;9.370;2023-01-08T09:12:47;99093.13;;;8.33;99.85
61618;BME280;47518;51.776;9.370;2023-01-08T09:15:12;99098.59;;;8.55;97.61
61618;BME280;47518;51.776;9.370;2023-01-08T09:17:38;99094.47;;;8.37;98.33
61618;BME280;47518;51.776;9.370;2023-01-08T09:20:04;99096.06;;;8.53;98.23
61618;BME280;47518;51.776;9.370;2023-01-08T09:22:30;99097.31;;;8.51;96.69
61618;BME280;47518;51.776;9.370;2023-01-08T09:24:55;99089.81;;;8.53;96.64
61618;BME280;47518;51.776;9.370;2023-01-08T09:27:20;99094.72;;;8.64;96.32
61618;BME280;47518;51.776;9.370;2023-01-08T09:29:46;99092.59;;;8.59;96.10
61618;BME280;47518;51.776;9.370;2023-01-08T09:32:11;99092.41;;;8.61;97.40
61618;BME280;47518;51.776;9.370;2023-01-08T09:34:36;99087.03;;;8.67;96.27
61618;BME280;47518;51.776;9.370;2023-01-08T09:37:02;99093.13;;;8.48;97.32
61618;BME280;47518;51.776;9.370;2023-01-08T09:39:28;99089.25;;;8.57;96.24
61618;BME280;47518;51.776;9.370;2023-01-08T09:41:54;99091.75;;;8.59;96.80
61618;BME280;47518;51.776;9.370;2023-01-08T09:44:24;99098.72;;;8.46;98.77
61618;BME280;47518;51.776;9.370;2023-01-08T09:46:53;99091.16;;;8.63;95.93
61618;BME280;47518;51.776;9.370;2023-01-08T09:49:23;99081.16;;;8.64;96.26
61618;BME280;47518;51.776;9.370;2023-01-08T09:51:50;99089.69;;;8.61;96.94
61618;BME280;47518;51.776;9.370;2023-01-08T09:54:16;99091.16;;;8.63;96.29
61618;BME280;47518;51.776;9.370;2023-01-08T09:56:42;99089.56;;;8.69;96.45
61618;BME280;47518;51.776;9.370;2023-01-08T09:59:12;99088.34;;;8.71;96.75
61618;BME280;47518;51.776;9.370;2023-01-08T10:01:39;99083.06;;;8.91;93.79
61618;BME280;47518;51.776;9.370;2023-01-08T10:09:30;99075.63;;;9.00;94.17
61618;BME280;47518;51.776;9.370;2023-01-08T10:11:59;99065.00;;;8.98;94.80
61618;BME280;47518;51.776;9.370;2023-01-08T10:14:41;99075.28;;;9.03;93.22
61618;BME280;47518;51.776;9.370;2023-01-08T10:17:22;99073.47;;;8.89;94.90
61618;BME280;47518;51.776;9.370;2023-01-08T10:19:50;99067.41;;;8.87;94.14
61618;BME280;47518;51.776;9.370;2023-01-08T10:22:17;99072.22;;;8.91;91.76
61618;BME280;47518;51.776;9.370;2023-01-08T10:24:44;99073.88;;;8.86;93.27
61618;BME280;47518;51.776;9.370;2023-01-08T10:27:20;99061.75;;;8.82;93.20
61618;BME280;47518;51.776;9.370;2023-01-08T10:29:45;99062.91;;;8.72;95.37
61618;BME280;47518;51.776;9.370;2023-01-08T10:32:16;99065.72;;;8.86;94.48
61618;BME280;47518;51.776;9.370;2023-01-08T10:34:46;99065.94;;;8.84;94.51
61618;BME280;47518;51.776;9.370;2023-01-08T10:37:21;99059.47;;;8.85;93.64
61618;BME280;47518;51.776;9.370;2023-01-08T10:39:48;99066.34;;;8.81;93.47
61618;BME280;47518;51.776;9.370;2023-01-08T10:42:16;99059.03;;;8.82;93.96
61618;BME280;47518;51.776;9.370;2023-01-08T10:45:02;99064.25;;;8.83;94.63
61618;BME280;47518;51.776;9.370;2023-01-08T10:47:31;99049.78;;;8.97;92.65
61618;BME280;47518;51.776;9.370;2023-01-08T10:49:58;99055.97;;;8.91;94.55
61618;BME280;47518;51.776;9.370;2023-01-08T10:55:24;99045.38;;;9.24;91.22
61618;BME280;47518;51.776;9.370;2023-01-08T10:57:55;99045.22;;;9.32;91.01
61618;BME280;47518;51.776;9.370;2023-01-08T11:00:26;99047.03;;;9.25;91.21
61618;BME280;47518;51.776;9.370;2023-01-08T11:02:52;99036.38;;;9.17;91.70
61618;BME280;47518;51.776;9.370;2023-01-08T11:05:18;99041.03;;;9.30;90.71
61618;BME280;47518;51.776;9.370;2023-01-08T11:07:47;99034.50;;;9.24;90.09
61618;BME280;47518;51.776;9.370;2023-01-08T11:10:22;99028.75;;;9.34;89.04
61618;BME280;47518;51.776;9.370;2023-01-08T11:12:53;99034.91;;;9.21;89.32
61618;BME280;47518;51.776;9.370;2023-01-08T11:18:19;99023.16;;;9.42;87.41
61618;BME280;47518;51.776;9.370;2023-01-08T11:20:46;99025.66;;;9.44;87.88
61618;BME280;47518;51.776;9.370;2023-01-08T11:36:25;99013.94;;;9.36;90.63
61618;BME280;47518;51.776;9.370;2023-01-08T11:38:52;98996.97;;;9.21;90.66
61618;BME280;47518;51.776;9.370;2023-01-08T11:41:38;98991.47;;;9.08;91.55
61618;BME280;47518;51.776;9.370;2023-01-08T11:55:47;98963.34;;;10.58;84.12
61618;BME280;47518;51.776;9.370;2023-01-08T12:07:31;98939.75;;;11.87;75.40
61618;BME280;47518;51.776;9.370;2023-01-08T12:32:14;98913.66;;;12.79;70.85
61618;BME280;47518;51.776;9.370;2023-01-08T12:34:52;98916.50;;;12.66;70.95
61618;BME280;47518;51.776;9.370;2023-01-08T12:37:26;98921.59;;;11.68;74.29
61618;BME280;47518;51.776;9.370;2023-01-08T12:39:57;98905.63;;;11.40;74.05
61618;BME280;47518;51.776;9.370;2023-01-08T12:42:29;98896.00;;;11.37;76.56
61618;BME280;47518;51.776;9.370;2023-01-08T12:44:58;98897.38;;;11.53;75.45
61618;BME280;47518;51.776;9.370;2023-01-08T12:47:27;98883.91;;;12.03;72.92
61618;BME280;47518;51.776;9.370;2023-01-08T12:50:02;98879.69;;;11.31;73.81
61618;BME280;47518;51.776;9.370;2023-01-08T12:52:42;98894.31;;;10.72;76.21
61618;BME280;47518;51.776;9.370;2023-01-08T13:11:07;98859.03;;;10.39;77.53
61618;BME280;47518;51.776;9.370;2023-01-08T13:26:40;98847.78;;;10.09;78.50
61618;BME280;47518;51.776;9.370;2023-01-08T13:29:41;98846.53;;;10.25;78.46
61618;BME280;47518;51.776;9.370;2023-01-08T13:32:43;98832.28;;;10.16;77.70
61618;BME280;47518;51.776;9.370;2023-01-08T13:35:19;98832.50;;;10.14;78.47
61618;BME280;47518;51.776;9.370;2023-01-08T13:37:48;98841.06;;;10.11;78.84
61618;BME280;47518;51.776;9.370;2023-01-08T13:40:35;98839.22;;;10.32;78.97
61618;BME280;47518;51.776;9.370;2023-01-08T13:43:02;98838.38;;;10.25;78.40
61618;BME280;47518;51.776;9.370;2023-01-08T13:45:29;98831.25;;;10.17;77.38
61618;BME280;47518;51.776;9.370;2023-01-08T13:47:55;98832.28;;;10.16;78.12
61618;BME280;47518;51.776;9.370;2023-01-08T13:50:22;98830.00;;;10.19;78.46
61618;BME280;47518;51.776;9.370;2023-01-08T13:52:56;98829.59;;;10.03;78.87
61618;BME280;47518;51.776;9.370;2023-01-08T13:55:39;98825.63;;;9.99;78.73
61618;BME280;47518;51.776;9.370;2023-01-08T13:58:11;98825.63;;;9.99;79.71
61618;BME280;47518;51.776;9.370;2023-01-08T14:00:45;98825.84;;;10.10;78.49
61618;BME280;47518;51.776;9.370;2023-01-08T14:03:28;98821.44;;;10.03;78.32
61618;BME280;47518;51.776;9.370;2023-01-08T14:06:16;98811.63;;;9.95;78.07
61618;BME280;47518;51.776;9.370;2023-01-08T14:08:59;98814.13;;;9.77;79.12
61618;BME280;47518;51.776;9.370;2023-01-08T14:14:11;98807.03;;;9.69;80.14
61618;BME280;47518;51.776;9.370;2023-01-08T14:16:38;98809.13;;;9.80;79.04
61618;BME280;47518;51.776;9.370;2023-01-08T14:19:04;98809.53;;;9.84;78.90
61618;BME280;47518;51.776;9.370;2023-01-08T14:21:30;98799.31;;;9.92;79.02
61618;BME280;47518;51.776;9.370;2023-01-08T14:23:55;98804.53;;;9.87;77.75
61618;BME280;47518;51.776;9.370;2023-01-08T14:26:28;98800.34;;;9.78;79.27
61618;BME280;47518;51.776;9.370;2023-01-08T14:28:55;98803.91;;;9.79;78.52
61618;BME280;47518;51.776;9.370;2023-01-08T14:31:24;98800.13;;;9.60;79.56
61618;BME280;47518;51.776;9.370;2023-01-08T14:33:52;98814.09;;;9.57;79.38
61618;BME280;47518;51.776;9.370;2023-01-08T14:36:18;98798.66;;;9.51;79.20
61618;BME280;47518;51.776;9.370;2023-01-08T14:38:44;98805.94;;;9.44;80.65
61618;BME280;47518;51.776;9.370;2023-01-08T14:41:16;98801.78;;;9.54;78.83
61618;BME280;47518;51.776;9.370;2023-01-08T14:43:46;98805.97;;;9.57;79.01
61618;BME280;47518;51.776;9.370;2023-01-08T14:48:55;98798.88;;;9.56;78.72
61618;BME280;47518;51.776;9.370;2023-01-08T14:51:23;98802.59;;;9.48;78.79
61618;BME280;47518;51.776;9.370;2023-01-08T14:53:53;98797.19;;;9.55;79.20
61618;BME280;47518;51.776;9.370;2023-01-08T14:56:24;98805.97;;;9.57;79.00
61618;BME280;47518;51.776;9.370;2023-01-08T14:58:51;98799.50;;;9.58;78.00
61618;BME280;47518;51.776;9.370;2023-01-08T15:01:22;98795.53;;;9.54;79.16
61618;BME280;47518;51.776;9.370;2023-01-08T15:03:50;98795.75;;;9.52;78.48
61618;BME280;47518;51.776;9.370;2023-01-08T15:06:26;98788.63;;;9.45;78.99
61618;BME280;47518;51.776;9.370;2023-01-08T15:08:52;98789.25;;;9.40;78.68
61618;BME280;47518;51.776;9.370;2023-01-08T15:14:11;98792.19;;;9.39;79.43
61618;BME280;47518;51.776;9.370;2023-01-08T15:16:39;98784.41;;;9.16;80.77
61618;BME280;47518;51.776;9.370;2023-01-08T15:19:16;98792.78;;;9.27;80.23
61618;BME280;47518;51.776;9.370;2023-01-08T15:21:52;98776.69;;;9.26;80.96
61618;BME280;47518;51.776;9.370;2023-01-08T15:24:24;98787.53;;;9.26;80.72
61618;BME280;47518;51.776;9.370;2023-01-08T15:26:52;98789.25;;;9.27;80.13
61618;BME280;47518;51.776;9.370;2023-01-08T15:29:22;98776.69;;;9.19;80.43
61618;BME280;47518;51.776;9.370;2023-01-08T15:31:49;98775.44;;;9.22;80.22
61618;BME280;47518;51.776;9.370;2023-01-08T15:34:17;98775.63;;;9.07;81.62
61618;BME280;47518;51.776;9.370;2023-01-08T15:36:44;98773.09;;;8.99;81.93
61618;BME280;47518;51.776;9.370;2023-01-08T15:39:10;98774.34;;;8.96;82.60